KALB

Albany International Airport

Albany, New York, USA
METAR KALB 190251Z 29008KT 10SM -SN OVC028 M05/M10 A3004 RMK AO2 SLP179 PCPN VRY LGT P0000 60000 T10501100 51009
Observed Flight Rules
Jan-19 @ 02:51 UTC (49 minutes ago) Marginal Visual Flight Rules
Wind Visibility Clouds Conditions
290° at 8 knots 10 miles
  • Overcast at 2,800' AGL
  • Light Snow
Temperatures Readings Precipitation
Current -5°C / 23°F
Dewpoint -10°C / 14°F
Humidity 68%
Altimeter 30.04" Hg
Pressure 1017.9 hPa
Elevation 92
Current Rain 0.005
METAR KALB 190251Z 29008KT 10SM -SN OVC028 M05/M10 A3004 RMK AO2 SLP179 PCPN VRY LGT P0000 60000 T10501100 51009
Observed Flight Rules
Jan-19 @ 02:51 UTC
(49 minutes ago)
MVFR
Wind Visibility
290° at 8 knots 10 miles
Clouds
  • Overcast at 2,800' AGL
Conditions
  • Light Snow
Temperature Dewpoint
-5°C / 23°F -10°C / 14°F
Humidity Altimeter Pressure
68% 30.04" Hg 1017.9 hPa
Current Rain
0.005